sensor_id;sensor_type;location;lat;lon;timestamp;P1;durP1;ratioP1;P2;durP2;ratioP2
76202;SDS011;64985;46.364;17.008;2023-04-08T00:02:25;33.35;;;21.63;;
76202;SDS011;64985;46.364;17.008;2023-04-08T00:05:29;35.25;;;22.48;;
76202;SDS011;64985;46.364;17.008;2023-04-08T00:08:32;34.65;;;21.65;;
76202;SDS011;64985;46.364;17.008;2023-04-08T00:11:35;33.67;;;21.10;;
76202;SDS011;64985;46.364;17.008;2023-04-08T00:14:39;34.38;;;21.70;;
76202;SDS011;64985;46.364;17.008;2023-04-08T00:17:42;36.35;;;22.42;;
76202;SDS011;64985;46.364;17.008;2023-04-08T00:20:47;33.08;;;20.73;;
76202;SDS011;64985;46.364;17.008;2023-04-08T00:23:50;37.70;;;22.42;;
76202;SDS011;64985;46.364;17.008;2023-04-08T00:26:53;36.40;;;21.77;;
76202;SDS011;64985;46.364;17.008;2023-04-08T00:29:57;40.80;;;23.92;;
76202;SDS011;64985;46.364;17.008;2023-04-08T00:33:01;41.28;;;24.90;;
76202;SDS011;64985;46.364;17.008;2023-04-08T00:36:04;40.13;;;23.38;;
76202;SDS011;64985;46.364;17.008;2023-04-08T00:39:07;39.55;;;24.73;;
76202;SDS011;64985;46.364;17.008;2023-04-08T00:42:11;37.63;;;22.05;;
76202;SDS011;64985;46.364;17.008;2023-04-08T00:45:14;34.65;;;21.77;;
76202;SDS011;64985;46.364;17.008;2023-04-08T00:48:17;37.80;;;23.77;;
76202;SDS011;64985;46.364;17.008;2023-04-08T00:51:20;40.15;;;23.60;;
76202;SDS011;64985;46.364;17.008;2023-04-08T00:54:23;43.38;;;25.48;;
76202;SDS011;64985;46.364;17.008;2023-04-08T00:57:26;42.85;;;25.17;;
76202;SDS011;64985;46.364;17.008;2023-04-08T01:00:30;46.47;;;25.90;;
76202;SDS011;64985;46.364;17.008;2023-04-08T01:03:41;41.10;;;24.83;;
76202;SDS011;64985;46.364;17.008;2023-04-08T01:07:16;38.90;;;23.95;;
76202;SDS011;64985;46.364;17.008;2023-04-08T01:10:28;37.75;;;22.45;;
76202;SDS011;64985;46.364;17.008;2023-04-08T01:13:33;41.40;;;23.20;;
76202;SDS011;64985;46.364;17.008;2023-04-08T01:16:40;42.10;;;24.15;;
76202;SDS011;64985;46.364;17.008;2023-04-08T01:19:46;35.40;;;22.75;;
76202;SDS011;64985;46.364;17.008;2023-04-08T01:26:23;43.70;;;25.90;;
76202;SDS011;64985;46.364;17.008;2023-04-08T01:29:28;39.33;;;23.98;;
76202;SDS011;64985;46.364;17.008;2023-04-08T01:32:32;42.08;;;24.85;;
76202;SDS011;64985;46.364;17.008;2023-04-08T01:35:36;41.92;;;24.98;;
76202;SDS011;64985;46.364;17.008;2023-04-08T01:38:40;40.22;;;24.15;;
76202;SDS011;64985;46.364;17.008;2023-04-08T01:41:43;41.00;;;24.17;;
76202;SDS011;64985;46.364;17.008;2023-04-08T01:44:47;41.97;;;24.05;;
76202;SDS011;64985;46.364;17.008;2023-04-08T01:47:51;43.33;;;24.63;;
76202;SDS011;64985;46.364;17.008;2023-04-08T01:50:56;39.75;;;24.52;;
76202;SDS011;64985;46.364;17.008;2023-04-08T01:54:00;45.15;;;26.02;;
76202;SDS011;64985;46.364;17.008;2023-04-08T01:57:04;38.53;;;23.80;;
76202;SDS011;64985;46.364;17.008;2023-04-08T02:00:11;40.83;;;24.75;;
76202;SDS011;64985;46.364;17.008;2023-04-08T02:03:16;44.88;;;24.65;;
76202;SDS011;64985;46.364;17.008;2023-04-08T02:06:24;41.38;;;25.25;;
76202;SDS011;64985;46.364;17.008;2023-04-08T02:09:30;44.30;;;26.27;;
76202;SDS011;64985;46.364;17.008;2023-04-08T02:12:33;46.78;;;26.02;;
76202;SDS011;64985;46.364;17.008;2023-04-08T02:15:37;44.40;;;25.90;;
76202;SDS011;64985;46.364;17.008;2023-04-08T02:18:44;40.90;;;24.70;;
76202;SDS011;64985;46.364;17.008;2023-04-08T02:22:09;40.90;;;24.08;;
76202;SDS011;64985;46.364;17.008;2023-04-08T02:25:20;40.97;;;24.95;;
76202;SDS011;64985;46.364;17.008;2023-04-08T02:28:25;40.65;;;24.60;;
76202;SDS011;64985;46.364;17.008;2023-04-08T02:31:30;41.40;;;24.60;;
76202;SDS011;64985;46.364;17.008;2023-04-08T02:34:34;40.17;;;24.10;;
76202;SDS011;64985;46.364;17.008;2023-04-08T02:37:40;42.80;;;25.60;;
76202;SDS011;64985;46.364;17.008;2023-04-08T02:40:47;40.22;;;23.98;;
76202;SDS011;64985;46.364;17.008;2023-04-08T02:43:52;42.42;;;23.33;;
76202;SDS011;64985;46.364;17.008;2023-04-08T02:46:56;40.50;;;22.85;;
76202;SDS011;64985;46.364;17.008;2023-04-08T02:49:59;35.65;;;21.77;;
76202;SDS011;64985;46.364;17.008;2023-04-08T02:53:03;38.10;;;22.10;;
76202;SDS011;64985;46.364;17.008;2023-04-08T02:56:09;38.70;;;22.45;;
76202;SDS011;64985;46.364;17.008;2023-04-08T02:59:13;36.15;;;22.25;;
76202;SDS011;64985;46.364;17.008;2023-04-08T03:02:16;37.63;;;21.75;;
76202;SDS011;64985;46.364;17.008;2023-04-08T03:05:19;38.25;;;22.40;;
76202;SDS011;64985;46.364;17.008;2023-04-08T03:08:23;40.08;;;22.60;;
76202;SDS011;64985;46.364;17.008;2023-04-08T03:11:26;35.28;;;21.60;;
76202;SDS011;64985;46.364;17.008;2023-04-08T03:14:29;39.35;;;23.00;;
76202;SDS011;64985;46.364;17.008;2023-04-08T03:17:32;37.85;;;22.55;;
76202;SDS011;64985;46.364;17.008;2023-04-08T03:20:36;35.22;;;22.38;;
76202;SDS011;64985;46.364;17.008;2023-04-08T03:23:39;39.53;;;22.58;;
76202;SDS011;64985;46.364;17.008;2023-04-08T03:26:42;36.72;;;23.30;;
76202;SDS011;64985;46.364;17.008;2023-04-08T03:29:46;38.67;;;22.20;;
76202;SDS011;64985;46.364;17.008;2023-04-08T03:32:49;37.95;;;23.23;;
76202;SDS011;64985;46.364;17.008;2023-04-08T03:35:53;36.50;;;22.02;;
76202;SDS011;64985;46.364;17.008;2023-04-08T03:38:57;41.42;;;23.55;;
76202;SDS011;64985;46.364;17.008;2023-04-08T03:42:00;39.15;;;23.00;;
76202;SDS011;64985;46.364;17.008;2023-04-08T03:45:04;36.35;;;22.80;;
76202;SDS011;64985;46.364;17.008;2023-04-08T03:48:08;39.28;;;22.90;;
76202;SDS011;64985;46.364;17.008;2023-04-08T03:51:11;36.75;;;22.40;;
76202;SDS011;64985;46.364;17.008;2023-04-08T03:54:14;38.28;;;22.45;;
76202;SDS011;64985;46.364;17.008;2023-04-08T03:57:17;34.13;;;21.40;;
76202;SDS011;64985;46.364;17.008;2023-04-08T04:00:21;35.17;;;21.92;;
76202;SDS011;64985;46.364;17.008;2023-04-08T04:03:24;40.13;;;22.45;;
76202;SDS011;64985;46.364;17.008;2023-04-08T04:06:28;35.65;;;22.58;;
76202;SDS011;64985;46.364;17.008;2023-04-08T04:09:32;37.38;;;22.75;;
76202;SDS011;64985;46.364;17.008;2023-04-08T04:12:35;36.72;;;22.30;;
76202;SDS011;64985;46.364;17.008;2023-04-08T04:15:39;36.00;;;21.52;;
76202;SDS011;64985;46.364;17.008;2023-04-08T04:18:42;36.90;;;22.77;;
76202;SDS011;64985;46.364;17.008;2023-04-08T04:21:45;38.33;;;23.17;;
76202;SDS011;64985;46.364;17.008;2023-04-08T04:24:48;37.17;;;22.10;;
76202;SDS011;64985;46.364;17.008;2023-04-08T04:27:52;38.00;;;21.80;;
76202;SDS011;64985;46.364;17.008;2023-04-08T04:30:56;34.83;;;21.50;;
76202;SDS011;64985;46.364;17.008;2023-04-08T04:33:59;35.50;;;21.85;;
76202;SDS011;64985;46.364;17.008;2023-04-08T04:37:02;36.30;;;22.17;;
76202;SDS011;64985;46.364;17.008;2023-04-08T04:40:05;41.22;;;24.10;;
76202;SDS011;64985;46.364;17.008;2023-04-08T04:43:09;40.17;;;23.88;;
76202;SDS011;64985;46.364;17.008;2023-04-08T04:46:12;40.60;;;24.70;;
76202;SDS011;64985;46.364;17.008;2023-04-08T04:49:16;38.67;;;23.55;;
76202;SDS011;64985;46.364;17.008;2023-04-08T04:52:19;38.03;;;23.25;;
76202;SDS011;64985;46.364;17.008;2023-04-08T04:55:21;37.33;;;23.38;;
76202;SDS011;64985;46.364;17.008;2023-04-08T04:58:25;36.53;;;23.52;;
76202;SDS011;64985;46.364;17.008;2023-04-08T05:01:28;38.67;;;22.60;;
76202;SDS011;64985;46.364;17.008;2023-04-08T05:04:31;37.95;;;23.98;;
76202;SDS011;64985;46.364;17.008;2023-04-08T05:07:34;35.03;;;21.33;;
76202;SDS011;64985;46.364;17.008;2023-04-08T05:10:40;35.70;;;22.73;;
76202;SDS011;64985;46.364;17.008;2023-04-08T05:13:44;38.13;;;22.30;;
76202;SDS011;64985;46.364;17.008;2023-04-08T05:16:47;37.60;;;22.83;;
76202;SDS011;64985;46.364;17.008;2023-04-08T05:19:50;37.35;;;22.45;;
76202;SDS011;64985;46.364;17.008;2023-04-08T05:22:54;39.08;;;23.30;;
76202;SDS011;64985;46.364;17.008;2023-04-08T05:25:57;35.60;;;23.15;;
76202;SDS011;64985;46.364;17.008;2023-04-08T05:29:01;38.45;;;22.90;;
76202;SDS011;64985;46.364;17.008;2023-04-08T05:32:04;34.60;;;21.85;;
76202;SDS011;64985;46.364;17.008;2023-04-08T05:35:07;39.20;;;23.83;;
76202;SDS011;64985;46.364;17.008;2023-04-08T05:38:11;45.45;;;25.70;;
76202;SDS011;64985;46.364;17.008;2023-04-08T05:41:14;60.83;;;33.22;;
76202;SDS011;64985;46.364;17.008;2023-04-08T05:44:18;63.83;;;35.78;;
76202;SDS011;64985;46.364;17.008;2023-04-08T05:47:20;49.28;;;27.88;;
76202;SDS011;64985;46.364;17.008;2023-04-08T05:50:23;55.80;;;33.58;;
76202;SDS011;64985;46.364;17.008;2023-04-08T05:53:27;62.30;;;32.33;;
76202;SDS011;64985;46.364;17.008;2023-04-08T05:56:30;53.42;;;31.23;;
76202;SDS011;64985;46.364;17.008;2023-04-08T05:59:33;50.15;;;29.38;;
76202;SDS011;64985;46.364;17.008;2023-04-08T06:02:36;50.92;;;30.15;;
76202;SDS011;64985;46.364;17.008;2023-04-08T06:05:40;49.85;;;31.55;;
76202;SDS011;64985;46.364;17.008;2023-04-08T06:08:43;46.53;;;29.05;;
76202;SDS011;64985;46.364;17.008;2023-04-08T06:11:46;40.42;;;25.33;;
76202;SDS011;64985;46.364;17.008;2023-04-08T06:14:54;35.38;;;22.15;;
76202;SDS011;64985;46.364;17.008;2023-04-08T06:17:57;34.83;;;22.00;;
76202;SDS011;64985;46.364;17.008;2023-04-08T06:21:01;41.55;;;26.23;;
76202;SDS011;64985;46.364;17.008;2023-04-08T06:24:04;40.85;;;25.45;;
76202;SDS011;64985;46.364;17.008;2023-04-08T06:27:08;41.97;;;25.17;;
76202;SDS011;64985;46.364;17.008;2023-04-08T06:30:11;38.33;;;22.17;;
76202;SDS011;64985;46.364;17.008;2023-04-08T06:33:14;31.70;;;20.95;;
76202;SDS011;64985;46.364;17.008;2023-04-08T06:36:18;32.13;;;21.02;;
76202;SDS011;64985;46.364;17.008;2023-04-08T06:39:21;32.90;;;21.20;;
76202;SDS011;64985;46.364;17.008;2023-04-08T06:42:24;35.35;;;22.52;;
76202;SDS011;64985;46.364;17.008;2023-04-08T06:45:28;33.78;;;22.08;;
76202;SDS011;64985;46.364;17.008;2023-04-08T06:48:32;37.20;;;22.77;;
76202;SDS011;64985;46.364;17.008;2023-04-08T06:51:35;34.80;;;22.85;;
76202;SDS011;64985;46.364;17.008;2023-04-08T06:54:38;38.92;;;23.17;;
76202;SDS011;64985;46.364;17.008;2023-04-08T06:57:42;33.55;;;22.45;;
76202;SDS011;64985;46.364;17.008;2023-04-08T07:00:46;32.35;;;21.40;;
76202;SDS011;64985;46.364;17.008;2023-04-08T07:03:49;39.80;;;23.40;;
76202;SDS011;64985;46.364;17.008;2023-04-08T07:06:53;33.47;;;21.77;;
76202;SDS011;64985;46.364;17.008;2023-04-08T07:09:56;30.85;;;20.80;;
76202;SDS011;64985;46.364;17.008;2023-04-08T07:12:59;33.22;;;21.75;;
76202;SDS011;64985;46.364;17.008;2023-04-08T07:16:02;32.92;;;21.20;;
76202;SDS011;64985;46.364;17.008;2023-04-08T07:19:05;31.77;;;21.48;;
76202;SDS011;64985;46.364;17.008;2023-04-08T07:22:08;32.67;;;21.45;;
76202;SDS011;64985;46.364;17.008;2023-04-08T07:25:12;47.38;;;24.70;;
76202;SDS011;64985;46.364;17.008;2023-04-08T07:28:15;33.65;;;21.85;;
76202;SDS011;64985;46.364;17.008;2023-04-08T07:31:18;31.40;;;19.58;;
76202;SDS011;64985;46.364;17.008;2023-04-08T07:34:22;34.13;;;20.75;;
76202;SDS011;64985;46.364;17.008;2023-04-08T07:37:26;34.55;;;21.60;;
76202;SDS011;64985;46.364;17.008;2023-04-08T07:40:31;30.90;;;19.85;;
76202;SDS011;64985;46.364;17.008;2023-04-08T07:43:34;32.63;;;19.92;;
76202;SDS011;64985;46.364;17.008;2023-04-08T07:46:38;30.50;;;20.38;;
76202;SDS011;64985;46.364;17.008;2023-04-08T07:49:42;73.20;;;24.50;;
76202;SDS011;64985;46.364;17.008;2023-04-08T07:52:47;32.25;;;21.27;;
76202;SDS011;64985;46.364;17.008;2023-04-08T07:55:50;29.67;;;20.45;;
76202;SDS011;64985;46.364;17.008;2023-04-08T07:58:53;26.30;;;18.40;;
76202;SDS011;64985;46.364;17.008;2023-04-08T08:01:57;27.70;;;18.95;;
76202;SDS011;64985;46.364;17.008;2023-04-08T08:05:00;27.63;;;18.88;;
76202;SDS011;64985;46.364;17.008;2023-04-08T08:08:04;27.13;;;18.80;;
76202;SDS011;64985;46.364;17.008;2023-04-08T08:11:08;27.55;;;18.48;;
76202;SDS011;64985;46.364;17.008;2023-04-08T08:14:13;25.52;;;17.75;;
76202;SDS011;64985;46.364;17.008;2023-04-08T08:17:16;26.63;;;18.85;;
76202;SDS011;64985;46.364;17.008;2023-04-08T08:20:20;25.30;;;17.67;;
76202;SDS011;64985;46.364;17.008;2023-04-08T08:23:23;26.58;;;17.02;;
76202;SDS011;64985;46.364;17.008;2023-04-08T08:26:26;25.67;;;17.75;;
76202;SDS011;64985;46.364;17.008;2023-04-08T08:29:29;24.98;;;17.25;;
76202;SDS011;64985;46.364;17.008;2023-04-08T08:32:33;24.40;;;17.30;;
76202;SDS011;64985;46.364;17.008;2023-04-08T08:35:37;24.63;;;17.52;;
76202;SDS011;64985;46.364;17.008;2023-04-08T08:38:40;25.65;;;16.90;;
76202;SDS011;64985;46.364;17.008;2023-04-08T08:41:43;24.88;;;17.83;;
76202;SDS011;64985;46.364;17.008;2023-04-08T08:44:47;24.00;;;16.58;;
76202;SDS011;64985;46.364;17.008;2023-04-08T08:47:50;24.95;;;17.33;;
76202;SDS011;64985;46.364;17.008;2023-04-08T08:50:53;24.48;;;17.35;;
76202;SDS011;64985;46.364;17.008;2023-04-08T08:53:56;26.58;;;17.60;;
76202;SDS011;64985;46.364;17.008;2023-04-08T08:57:15;27.98;;;18.85;;
76202;SDS011;64985;46.364;17.008;2023-04-08T09:00:35;27.40;;;19.17;;
76202;SDS011;64985;46.364;17.008;2023-04-08T09:03:39;28.85;;;19.67;;
76202;SDS011;64985;46.364;17.008;2023-04-08T09:06:43;27.67;;;18.27;;
76202;SDS011;64985;46.364;17.008;2023-04-08T09:09:52;32.72;;;22.98;;
76202;SDS011;64985;46.364;17.008;2023-04-08T09:12:57;23.98;;;16.50;;
76202;SDS011;64985;46.364;17.008;2023-04-08T09:16:11;24.70;;;16.55;;
76202;SDS011;64985;46.364;17.008;2023-04-08T09:19:16;25.67;;;17.77;;
76202;SDS011;64985;46.364;17.008;2023-04-08T09:22:19;26.15;;;17.42;;
76202;SDS011;64985;46.364;17.008;2023-04-08T09:25:23;28.23;;;21.15;;
76202;SDS011;64985;46.364;17.008;2023-04-08T09:28:30;26.77;;;18.83;;
76202;SDS011;64985;46.364;17.008;2023-04-08T09:31:34;25.75;;;18.08;;
76202;SDS011;64985;46.364;17.008;2023-04-08T09:34:42;27.17;;;19.20;;
76202;SDS011;64985;46.364;17.008;2023-04-08T09:37:45;24.77;;;16.40;;
76202;SDS011;64985;46.364;17.008;2023-04-08T09:40:49;28.75;;;17.23;;
76202;SDS011;64985;46.364;17.008;2023-04-08T09:43:54;24.75;;;17.60;;
76202;SDS011;64985;46.364;17.008;2023-04-08T09:47:00;22.20;;;15.82;;
76202;SDS011;64985;46.364;17.008;2023-04-08T09:50:13;24.42;;;16.55;;
76202;SDS011;64985;46.364;17.008;2023-04-08T09:56:43;24.20;;;16.70;;
76202;SDS011;64985;46.364;17.008;2023-04-08T09:59:59;24.48;;;16.30;;
76202;SDS011;64985;46.364;17.008;2023-04-08T10:03:14;21.77;;;15.43;;
76202;SDS011;64985;46.364;17.008;2023-04-08T10:06:25;22.45;;;15.63;;
76202;SDS011;64985;46.364;17.008;2023-04-08T10:09:30;23.25;;;16.17;;
76202;SDS011;64985;46.364;17.008;2023-04-08T10:12:34;23.67;;;16.98;;
76202;SDS011;64985;46.364;17.008;2023-04-08T10:15:38;25.40;;;16.90;;
76202;SDS011;64985;46.364;17.008;2023-04-08T10:18:44;26.48;;;19.05;;
76202;SDS011;64985;46.364;17.008;2023-04-08T10:21:47;27.80;;;18.58;;
76202;SDS011;64985;46.364;17.008;2023-04-08T10:31:25;19.92;;;14.73;;
76202;SDS011;64985;46.364;17.008;2023-04-08T10:34:28;20.15;;;14.45;;
76202;SDS011;64985;46.364;17.008;2023-04-08T10:37:32;20.95;;;14.75;;
76202;SDS011;64985;46.364;17.008;2023-04-08T10:40:35;23.67;;;16.15;;
76202;SDS011;64985;46.364;17.008;2023-04-08T10:43:43;24.02;;;15.35;;
76202;SDS011;64985;46.364;17.008;2023-04-08T10:46:49;25.38;;;16.33;;
76202;SDS011;64985;46.364;17.008;2023-04-08T10:49:53;21.60;;;15.27;;
76202;SDS011;64985;46.364;17.008;2023-04-08T10:52:56;21.70;;;15.27;;
76202;SDS011;64985;46.364;17.008;2023-04-08T10:56:09;23.10;;;14.85;;
76202;SDS011;64985;46.364;17.008;2023-04-08T10:59:29;25.73;;;17.50;;
76202;SDS011;64985;46.364;17.008;2023-04-08T11:02:39;20.52;;;14.77;;
76202;SDS011;64985;46.364;17.008;2023-04-08T11:05:42;47.85;;;27.02;;
76202;SDS011;64985;46.364;17.008;2023-04-08T11:08:45;27.52;;;18.17;;
76202;SDS011;64985;46.364;17.008;2023-04-08T11:11:48;26.48;;;17.75;;
76202;SDS011;64985;46.364;17.008;2023-04-08T11:14:53;27.02;;;19.55;;
76202;SDS011;64985;46.364;17.008;2023-04-08T11:17:57;27.85;;;19.80;;
76202;SDS011;64985;46.364;17.008;2023-04-08T11:21:02;25.40;;;18.63;;
76202;SDS011;64985;46.364;17.008;2023-04-08T11:24:10;30.05;;;19.77;;
76202;SDS011;64985;46.364;17.008;2023-04-08T11:27:14;30.88;;;20.77;;
76202;SDS011;64985;46.364;17.008;2023-04-08T11:30:20;29.70;;;19.60;;
76202;SDS011;64985;46.364;17.008;2023-04-08T11:33:25;31.52;;;20.95;;
76202;SDS011;64985;46.364;17.008;2023-04-08T11:36:28;27.98;;;19.23;;
76202;SDS011;64985;46.364;17.008;2023-04-08T11:39:31;30.38;;;21.55;;
76202;SDS011;64985;46.364;17.008;2023-04-08T11:42:35;28.45;;;20.17;;
76202;SDS011;64985;46.364;17.008;2023-04-08T11:45:39;25.92;;;18.10;;
76202;SDS011;64985;46.364;17.008;2023-04-08T11:48:55;27.88;;;19.23;;
76202;SDS011;64985;46.364;17.008;2023-04-08T11:51:59;31.33;;;21.10;;
76202;SDS011;64985;46.364;17.008;2023-04-08T11:55:03;30.48;;;20.73;;
76202;SDS011;64985;46.364;17.008;2023-04-08T11:58:06;24.55;;;16.98;;
76202;SDS011;64985;46.364;17.008;2023-04-08T12:01:10;24.60;;;17.60;;
76202;SDS011;64985;46.364;17.008;2023-04-08T12:04:16;29.77;;;20.42;;
76202;SDS011;64985;46.364;17.008;2023-04-08T12:07:19;30.58;;;20.20;;
76202;SDS011;64985;46.364;17.008;2023-04-08T12:10:22;26.48;;;19.77;;
76202;SDS011;64985;46.364;17.008;2023-04-08T12:13:29;28.33;;;19.42;;
76202;SDS011;64985;46.364;17.008;2023-04-08T12:16:32;22.80;;;17.00;;
76202;SDS011;64985;46.364;17.008;2023-04-08T12:19:36;26.88;;;18.67;;
76202;SDS011;64985;46.364;17.008;2023-04-08T12:22:39;26.10;;;17.77;;
76202;SDS011;64985;46.364;17.008;2023-04-08T12:25:42;36.00;;;19.90;;
76202;SDS011;64985;46.364;17.008;2023-04-08T12:28:45;23.35;;;16.98;;
76202;SDS011;64985;46.364;17.008;2023-04-08T12:31:49;23.75;;;17.17;;
76202;SDS011;64985;46.364;17.008;2023-04-08T12:34:53;26.10;;;18.77;;
76202;SDS011;64985;46.364;17.008;2023-04-08T12:37:57;26.17;;;19.13;;
76202;SDS011;64985;46.364;17.008;2023-04-08T12:41:00;26.63;;;19.02;;
76202;SDS011;64985;46.364;17.008;2023-04-08T12:44:03;27.63;;;19.15;;
76202;SDS011;64985;46.364;17.008;2023-04-08T12:47:06;23.83;;;18.15;;
76202;SDS011;64985;46.364;17.008;2023-04-08T12:50:10;24.60;;;16.52;;
76202;SDS011;64985;46.364;17.008;2023-04-08T12:53:14;22.30;;;16.30;;
76202;SDS011;64985;46.364;17.008;2023-04-08T12:56:17;24.15;;;17.67;;
76202;SDS011;64985;46.364;17.008;2023-04-08T12:59:20;25.35;;;18.20;;
76202;SDS011;64985;46.364;17.008;2023-04-08T13:02:23;25.75;;;18.70;;
76202;SDS011;64985;46.364;17.008;2023-04-08T13:05:31;28.85;;;20.55;;
76202;SDS011;64985;46.364;17.008;2023-04-08T13:08:44;31.40;;;22.15;;
76202;SDS011;64985;46.364;17.008;2023-04-08T13:11:48;31.45;;;21.40;;
76202;SDS011;64985;46.364;17.008;2023-04-08T13:14:51;33.65;;;23.10;;
76202;SDS011;64985;46.364;17.008;2023-04-08T13:17:55;33.03;;;22.25;;
76202;SDS011;64985;46.364;17.008;2023-04-08T13:20:58;35.13;;;22.17;;
76202;SDS011;64985;46.364;17.008;2023-04-08T13:24:02;31.42;;;20.30;;
76202;SDS011;64985;46.364;17.008;2023-04-08T13:27:05;33.40;;;21.88;;
76202;SDS011;64985;46.364;17.008;2023-04-08T13:30:09;31.73;;;20.63;;
76202;SDS011;64985;46.364;17.008;2023-04-08T13:33:14;35.70;;;21.80;;
76202;SDS011;64985;46.364;17.008;2023-04-08T13:36:17;31.55;;;21.42;;
76202;SDS011;64985;46.364;17.008;2023-04-08T13:39:20;33.53;;;21.55;;
76202;SDS011;64985;46.364;17.008;2023-04-08T13:42:24;30.00;;;20.33;;
76202;SDS011;64985;46.364;17.008;2023-04-08T13:45:27;30.10;;;20.58;;
76202;SDS011;64985;46.364;17.008;2023-04-08T13:48:30;28.88;;;19.35;;
76202;SDS011;64985;46.364;17.008;2023-04-08T13:51:33;29.52;;;19.55;;
76202;SDS011;64985;46.364;17.008;2023-04-08T13:54:36;32.03;;;20.20;;
76202;SDS011;64985;46.364;17.008;2023-04-08T13:57:39;28.80;;;19.35;;
76202;SDS011;64985;46.364;17.008;2023-04-08T14:00:43;26.67;;;18.35;;
76202;SDS011;64985;46.364;17.008;2023-04-08T14:03:46;25.70;;;17.00;;
76202;SDS011;64985;46.364;17.008;2023-04-08T14:06:51;26.00;;;18.08;;
76202;SDS011;64985;46.364;17.008;2023-04-08T14:09:54;23.55;;;16.00;;
76202;SDS011;64985;46.364;17.008;2023-04-08T14:12:58;22.98;;;15.70;;
76202;SDS011;64985;46.364;17.008;2023-04-08T14:16:01;23.42;;;15.82;;
76202;SDS011;64985;46.364;17.008;2023-04-08T14:19:04;24.52;;;15.88;;
76202;SDS011;64985;46.364;17.008;2023-04-08T14:22:07;22.10;;;13.65;;
76202;SDS011;64985;46.364;17.008;2023-04-08T14:25:10;20.70;;;13.75;;
76202;SDS011;64985;46.364;17.008;2023-04-08T14:28:14;18.70;;;12.77;;
76202;SDS011;64985;46.364;17.008;2023-04-08T14:31:18;18.15;;;12.45;;
76202;SDS011;64985;46.364;17.008;2023-04-08T14:34:21;16.45;;;11.63;;
76202;SDS011;64985;46.364;17.008;2023-04-08T14:37:24;15.88;;;10.98;;
76202;SDS011;64985;46.364;17.008;2023-04-08T14:40:28;16.15;;;11.13;;
76202;SDS011;64985;46.364;17.008;2023-04-08T14:43:31;17.02;;;11.35;;
76202;SDS011;64985;46.364;17.008;2023-04-08T14:46:34;15.40;;;11.25;;
76202;SDS011;64985;46.364;17.008;2023-04-08T14:49:38;15.05;;;10.52;;
76202;SDS011;64985;46.364;17.008;2023-04-08T14:52:41;14.15;;;9.80;;
76202;SDS011;64985;46.364;17.008;2023-04-08T14:55:46;13.75;;;9.38;;
76202;SDS011;64985;46.364;17.008;2023-04-08T14:58:49;13.52;;;9.45;;
76202;SDS011;64985;46.364;17.008;2023-04-08T15:01:53;12.15;;;9.00;;
76202;SDS011;64985;46.364;17.008;2023-04-08T15:04:56;11.50;;;8.85;;
76202;SDS011;64985;46.364;17.008;2023-04-08T15:07:59;12.38;;;8.90;;
76202;SDS011;64985;46.364;17.008;2023-04-08T15:11:02;10.57;;;7.95;;
76202;SDS011;64985;46.364;17.008;2023-04-08T15:14:05;11.65;;;7.90;;
76202;SDS011;64985;46.364;17.008;2023-04-08T15:17:08;8.93;;;6.75;;
76202;SDS011;64985;46.364;17.008;2023-04-08T15:20:12;9.90;;;7.40;;
76202;SDS011;64985;46.364;17.008;2023-04-08T15:23:15;8.57;;;6.95;;
76202;SDS011;64985;46.364;17.008;2023-04-08T15:26:18;8.68;;;6.57;;
76202;SDS011;64985;46.364;17.008;2023-04-08T15:29:22;8.68;;;6.53;;
76202;SDS011;64985;46.364;17.008;2023-04-08T15:32:27;9.90;;;7.45;;
76202;SDS011;64985;46.364;17.008;2023-04-08T15:35:31;9.60;;;7.13;;
76202;SDS011;64985;46.364;17.008;2023-04-08T15:38:35;7.65;;;6.00;;
76202;SDS011;64985;46.364;17.008;2023-04-08T15:41:39;9.68;;;5.65;;
76202;SDS011;64985;46.364;17.008;2023-04-08T15:44:42;7.93;;;6.25;;
76202;SDS011;64985;46.364;17.008;2023-04-08T15:47:45;8.88;;;6.50;;
76202;SDS011;64985;46.364;17.008;2023-04-08T15:50:48;6.70;;;5.18;;
76202;SDS011;64985;46.364;17.008;2023-04-08T15:53:52;6.82;;;5.25;;
76202;SDS011;64985;46.364;17.008;2023-04-08T15:56:55;6.40;;;5.05;;
76202;SDS011;64985;46.364;17.008;2023-04-08T15:59:58;7.32;;;5.80;;
76202;SDS011;64985;46.364;17.008;2023-04-08T16:03:02;6.95;;;5.78;;
76202;SDS011;64985;46.364;17.008;2023-04-08T16:06:09;6.10;;;5.25;;
76202;SDS011;64985;46.364;17.008;2023-04-08T16:09:16;5.45;;;4.60;;
76202;SDS011;64985;46.364;17.008;2023-04-08T16:12:23;7.45;;;4.93;;
76202;SDS011;64985;46.364;17.008;2023-04-08T16:15:27;7.53;;;5.20;;
76202;SDS011;64985;46.364;17.008;2023-04-08T16:18:30;6.38;;;5.00;;
76202;SDS011;64985;46.364;17.008;2023-04-08T16:21:34;12.05;;;7.93;;
76202;SDS011;64985;46.364;17.008;2023-04-08T16:24:37;14.68;;;9.40;;
76202;SDS011;64985;46.364;17.008;2023-04-08T16:27:40;8.02;;;5.97;;
76202;SDS011;64985;46.364;17.008;2023-04-08T16:30:43;7.25;;;5.68;;
76202;SDS011;64985;46.364;17.008;2023-04-08T16:33:49;4.82;;;3.78;;
76202;SDS011;64985;46.364;17.008;2023-04-08T16:36:53;4.47;;;3.72;;
76202;SDS011;64985;46.364;17.008;2023-04-08T16:39:55;5.70;;;3.67;;
76202;SDS011;64985;46.364;17.008;2023-04-08T16:42:59;6.28;;;4.57;;
76202;SDS011;64985;46.364;17.008;2023-04-08T16:46:10;8.18;;;4.60;;
76202;SDS011;64985;46.364;17.008;2023-04-08T16:49:14;6.28;;;4.55;;
76202;SDS011;64985;46.364;17.008;2023-04-08T16:52:19;5.93;;;4.65;;
76202;SDS011;64985;46.364;17.008;2023-04-08T16:55:22;8.10;;;4.95;;
76202;SDS011;64985;46.364;17.008;2023-04-08T16:58:25;12.20;;;7.20;;
76202;SDS011;64985;46.364;17.008;2023-04-08T17:01:28;10.93;;;7.20;;
76202;SDS011;64985;46.364;17.008;2023-04-08T17:04:31;9.32;;;6.30;;
76202;SDS011;64985;46.364;17.008;2023-04-08T17:07:34;7.07;;;5.13;;
76202;SDS011;64985;46.364;17.008;2023-04-08T17:10:38;5.70;;;4.40;;
76202;SDS011;64985;46.364;17.008;2023-04-08T17:13:41;6.30;;;4.55;;
76202;SDS011;64985;46.364;17.008;2023-04-08T17:16:45;10.30;;;6.05;;
76202;SDS011;64985;46.364;17.008;2023-04-08T17:19:48;8.45;;;5.50;;
76202;SDS011;64985;46.364;17.008;2023-04-08T17:22:52;8.95;;;5.65;;
76202;SDS011;64985;46.364;17.008;2023-04-08T17:25:55;6.90;;;5.43;;
76202;SDS011;64985;46.364;17.008;2023-04-08T17:28:58;10.85;;;7.05;;
76202;SDS011;64985;46.364;17.008;2023-04-08T17:32:02;6.70;;;5.10;;
76202;SDS011;64985;46.364;17.008;2023-04-08T17:35:05;8.93;;;6.93;;
76202;SDS011;64985;46.364;17.008;2023-04-08T17:38:09;14.73;;;8.68;;
76202;SDS011;64985;46.364;17.008;2023-04-08T17:41:12;8.75;;;6.60;;
76202;SDS011;64985;46.364;17.008;2023-04-08T17:44:31;7.45;;;5.68;;
76202;SDS011;64985;46.364;17.008;2023-04-08T17:47:34;8.40;;;6.03;;
76202;SDS011;64985;46.364;17.008;2023-04-08T17:50:37;9.13;;;6.93;;
76202;SDS011;64985;46.364;17.008;2023-04-08T17:53:40;11.55;;;8.68;;
76202;SDS011;64985;46.364;17.008;2023-04-08T17:56:44;11.45;;;8.68;;
76202;SDS011;64985;46.364;17.008;2023-04-08T17:59:50;11.90;;;8.80;;
76202;SDS011;64985;46.364;17.008;2023-04-08T18:02:54;21.65;;;14.10;;